METAR AND TAF INFORMATION
METAR FOR SBRJ
ADDS - METARS form results

(2046 UTC 21 May 2018)
Data provider http://aviationweather.gov/adds/metars/
 
METAR text: SBRJ 212000Z 17009KT CAVOK 22/12 Q1016
Conditions at: SBRJ (SANTOS DUMONT/RI, BR) observed 2000 UTC 21 May 2018
Temperature: 22.0°C (72°F)
Dewpoint: 12.0°C (54°F) [RH = 53%]
Pressure (altimeter): 30.00 inches Hg (1016.0 mb)
Winds: from the S (170 degrees) at 10 MPH (9 knots; 4.7 m/s)
Visibility: 6 or more miles (10+ km)
Ceiling: ceiling and visibility are OK
Clouds: unknown
Weather: no significant weather observed at this time

Forecast for: SBRJ (SANTOS DUMONT/RI, BR)
Text: TAF SBRJ 211430Z 2118/2206 20015KT CAVOK TX24/2118Z TN17/2206Z
Forecast period: 1800 to 1900 UTC 21 May 2018
Forecast type: FROM: standard forecast or significant change
Winds: from the SSW (200 degrees) at 17 MPH (15 knots; 7.8 m/s)
Visibility: 6 or more miles (10+ km)
Clouds: not forecast
Weather: no significant weather forecast for this period
Forecast for: SBRJ (SANTOS DUMONT/RI, BR)
Text: TAF SBRJ 211430Z 2118/2206 20015KT CAVOK TX24/2118Z TN17/2206Z
Forecast period: 1800 to 1900 UTC 21 May 2018
Forecast type: FROM: standard forecast or significant change
Winds: from the SSW (200 degrees) at 17 MPH (15 knots; 7.8 m/s)
Visibility: 6 or more miles (10+ km)
Clouds: not forecast
Weather: no significant weather forecast for this period
Forecast for: SBRJ (SANTOS DUMONT/RI, BR)
Text: TAF SBRJ 211430Z 2118/2206 20015KT CAVOK TX24/2118Z TN17/2206Z
Forecast period: 1900 to 2200 UTC 21 May 2018
Forecast type: BECOMING: Conditions expected to become as follows by 2100 UTC 21 May 2018
Winds: from the S (170 degrees) at 12 MPH (10 knots; 5.2 m/s)
Visibility: 6 or more miles (10+ km)
Weather: no significant weather forecast for this period
Forecast for: SBRJ (SANTOS DUMONT/RI, BR)
Text: TAF SBRJ 211430Z 2118/2206 20015KT CAVOK TX24/2118Z TN17/2206Z
Forecast period: 1900 to 2200 UTC 21 May 2018
Forecast type: BECOMING: Conditions expected to become as follows by 2100 UTC 21 May 2018
Winds: from the S (170 degrees) at 12 MPH (10 knots; 5.2 m/s)
Visibility: 6 or more miles (10+ km)
Weather: no significant weather forecast for this period
Forecast for: SBRJ (SANTOS DUMONT/RI, BR)
Text: TAF SBRJ 211430Z 2118/2206 20015KT CAVOK TX24/2118Z TN17/2206Z
Forecast period: 2200 UTC 21 May 2018 to 0400 UTC 22 May 2018
Forecast type: BECOMING: Conditions expected to become as follows by 0000 UTC 22 May 2018
Winds: from the NW (310 degrees) at 6 MPH (5 knots; 2.6 m/s)
Visibility: 6 or more miles (10+ km)
Weather: no significant weather forecast for this period
Forecast for: SBRJ (SANTOS DUMONT/RI, BR)
Text: TAF SBRJ 211430Z 2118/2206 20015KT CAVOK TX24/2118Z TN17/2206Z
Forecast period: 2200 UTC 21 May 2018 to 0400 UTC 22 May 2018
Forecast type: BECOMING: Conditions expected to become as follows by 0000 UTC 22 May 2018
Winds: from the NW (310 degrees) at 6 MPH (5 knots; 2.6 m/s)
Visibility: 6 or more miles (10+ km)
Weather: no significant weather forecast for this period
Forecast for: SBRJ (SANTOS DUMONT/RI, BR)
Text: TAF SBRJ 211430Z 2118/2206 20015KT CAVOK TX24/2118Z TN17/2206Z
Forecast period: 0400 to 0600 UTC 22 May 2018
Forecast type: BECOMING: Conditions expected to become as follows by 0600 UTC 22 May 2018
Winds: from the N (350 degrees) at 6 MPH (5 knots; 2.6 m/s)
Visibility: 5 miles (8 km)
Weather: no significant weather forecast for this period
Forecast for: SBRJ (SANTOS DUMONT/RI, BR)
Text: TAF SBRJ 211430Z 2118/2206 20015KT CAVOK TX24/2118Z TN17/2206Z
Forecast period: 0400 to 0600 UTC 22 May 2018
Forecast type: BECOMING: Conditions expected to become as follows by 0600 UTC 22 May 2018
Winds: from the N (350 degrees) at 6 MPH (5 knots; 2.6 m/s)
Visibility: 5 miles (8 km)
Weather: no significant weather forecast for this period

 AIRPORT MAP

 RUNWAY INFORMATION
Runway 02L Runway length 4134 ft Runway width 98 ft
Runway elevation 0 ft Runway displaced threshold 0 ft Runway heading 0
Runway 20R Runway length 4134 ft Runway width 98 ft
Runway elevation 0 ft Runway displaced threshold 0 ft Runway heading 0
Runway 02R Runway length 4341 ft Runway width 138 ft
Runway elevation 0 ft Runway displaced threshold 0 ft Runway heading 0
Runway 20L Runway length 4341 ft Runway width 138 ft
Runway elevation 0 ft Runway displaced threshold 0 ft Runway heading 0

 AIRPORT FREQUENCIES
Type APP Name RIO CON Frequency 119.35 MHZ
Type ATIS Name ATIS Frequency 132.65 MHZ
Type CLD Name TFC Frequency 121.05 MHZ
Type GND Name GND Frequency 121.7 MHZ
Type TWR Name RIO TWR Frequency 118.7 MHZ

 AIRPORT NEAR NAVIGATION AIDS
Type NDB Name Paiol Frequency 415 KHZ



Powered by Virtual Airlines Manager [v2.6.2]